createdAt,value
2017-03-28T00:00:57.099Z,60.31
2017-03-28T00:01:58.518Z,60.69
2017-03-28T00:02:59.947Z,61.07
2017-03-28T00:04:01.366Z,61.45
2017-03-28T00:05:02.796Z,62.40
2017-03-28T00:06:04.220Z,62.40
2017-03-28T00:07:05.645Z,62.12
2017-03-28T00:08:07.067Z,61.36
2017-03-28T00:09:08.492Z,61.65
2017-03-28T00:10:09.906Z,62.50
2017-03-28T00:11:11.332Z,61.83
2017-03-28T00:12:12.761Z,62.78
2017-03-28T00:13:14.185Z,63.98
2017-03-28T00:14:15.604Z,64.78
2017-03-28T00:15:17.026Z,64.17
2017-03-28T00:16:18.458Z,64.56
2017-03-28T00:17:19.887Z,64.56
2017-03-28T00:18:21.312Z,64.17
2017-03-28T00:19:22.745Z,65.03
2017-03-28T00:20:24.173Z,63.92
2017-03-28T00:21:25.589Z,64.56
2017-03-28T00:22:27.008Z,64.94
2017-03-28T00:23:28.426Z,64.69
2017-03-28T00:24:29.853Z,63.35
2017-03-28T00:25:31.278Z,63.92
2017-03-28T00:26:32.698Z,64.59
2017-03-28T00:27:34.125Z,63.98
2017-03-28T00:28:35.544Z,64.65
2017-03-28T00:29:36.973Z,64.65
2017-03-28T00:30:38.392Z,64.94
2017-03-28T00:31:39.811Z,66.36
2017-03-28T00:32:41.237Z,66.64
2017-03-28T00:33:42.668Z,67.12
2017-03-28T00:34:44.095Z,67.12
2017-03-28T00:35:45.522Z,66.36
2017-03-28T00:36:46.951Z,65.03
2017-03-28T00:37:48.366Z,66.17
2017-03-28T00:38:49.832Z,65.60
2017-03-28T00:39:51.359Z,66.46
2017-03-28T00:40:52.807Z,66.17
2017-03-28T00:41:54.248Z,66.64
2017-03-28T00:42:55.679Z,66.46
2017-03-28T00:43:57.097Z,66.93
2017-03-28T00:44:59.303Z,65.98
2017-03-28T00:46:00.714Z,66.17
2017-03-28T00:47:02.140Z,65.98
2017-03-28T00:48:03.569Z,66.55
2017-03-28T00:49:04.988Z,67.02
2017-03-28T00:50:06.416Z,67.40
2017-03-28T00:51:08.518Z,67.02
2017-03-28T00:52:09.947Z,68.16
2017-03-28T00:53:11.371Z,66.93
2017-03-28T00:54:12.796Z,66.08
2017-03-28T00:55:14.217Z,65.31
2017-03-28T00:56:15.641Z,67.12
2017-03-28T00:57:17.060Z,66.27
2017-03-28T00:58:18.483Z,67.31
2017-03-28T00:59:19.907Z,67.21
2017-03-28T01:00:21.333Z,66.55
2017-03-28T01:01:22.754Z,66.89
2017-03-28T01:02:24.178Z,66.83
2017-03-28T01:03:25.608Z,66.71
2017-03-28T01:04:27.025Z,66.36
2017-03-28T01:05:28.448Z,66.93
2017-03-28T01:06:29.876Z,66.83
2017-03-28T01:07:31.346Z,66.55
2017-03-28T01:08:32.768Z,66.64
2017-03-28T01:09:34.197Z,67.65
2017-03-28T01:10:36.458Z,66.80
2017-03-28T01:11:37.884Z,67.31
2017-03-28T01:12:39.305Z,67.79
2017-03-28T01:13:40.726Z,67.40
2017-03-28T01:14:42.155Z,67.94
2017-03-28T01:15:43.583Z,68.44
2017-03-28T01:16:45.005Z,67.88
2017-03-28T01:17:46.434Z,68.16
2017-03-28T01:18:48.628Z,66.55
2017-03-28T01:19:50.045Z,66.46
2017-03-28T01:20:51.468Z,66.83
2017-03-28T01:21:52.893Z,66.36
2017-03-28T01:22:54.317Z,65.98
2017-03-28T01:23:55.751Z,65.60
2017-03-28T01:24:57.181Z,65.88
2017-03-28T01:25:58.602Z,66.46
2017-03-28T01:27:00.031Z,65.60
2017-03-28T01:28:01.465Z,66.33
2017-03-28T01:29:02.904Z,66.46
2017-03-28T01:30:04.337Z,66.83
2017-03-28T01:31:05.758Z,67.02
2017-03-28T01:32:07.196Z,68.16
2017-03-28T01:33:08.634Z,67.94
2017-03-28T01:34:10.042Z,67.97
2017-03-28T01:35:11.471Z,67.18
2017-03-28T01:36:12.895Z,67.75
2017-03-28T01:37:14.315Z,67.12
2017-03-28T01:38:15.741Z,67.50
2017-03-28T01:39:17.168Z,66.89
2017-03-28T01:40:18.598Z,68.73
2017-03-28T01:41:20.017Z,68.98
2017-03-28T01:42:21.432Z,69.55
2017-03-28T01:43:22.883Z,69.17
2017-03-28T01:44:24.301Z,68.07
2017-03-28T01:45:25.734Z,67.88
2017-03-28T01:46:27.159Z,67.85
2017-03-28T01:47:28.584Z,68.26
2017-03-28T01:48:30.009Z,67.79
2017-03-28T01:49:31.449Z,67.02
2017-03-28T01:50:32.865Z,67.02
2017-03-28T01:51:34.291Z,67.75
2017-03-28T01:52:35.711Z,68.41
2017-03-28T01:53:37.149Z,68.79
2017-03-28T01:54:38.570Z,68.98
2017-03-28T01:55:39.991Z,68.98
2017-03-28T01:56:41.412Z,68.44
2017-03-28T01:57:42.832Z,68.92
2017-03-28T01:58:44.253Z,68.16
2017-03-28T01:59:45.677Z,68.07
2017-03-28T02:00:47.091Z,67.12
2017-03-28T02:01:48.515Z,67.69
2017-03-28T02:02:49.940Z,67.88
2017-03-28T02:03:51.367Z,67.65
2017-03-28T02:04:52.800Z,67.21
2017-03-28T02:05:54.233Z,68.23
2017-03-28T02:06:55.653Z,67.94
2017-03-28T02:07:57.074Z,68.07
2017-03-28T02:08:58.510Z,67.97
2017-03-28T02:09:59.934Z,68.83
2017-03-28T02:11:01.358Z,68.16
2017-03-28T02:12:02.776Z,66.55
2017-03-28T02:13:04.196Z,66.36
2017-03-28T02:14:05.617Z,66.80
2017-03-28T02:15:07.050Z,67.56
2017-03-28T02:16:08.468Z,68.51
2017-03-28T02:17:09.906Z,69.08
2017-03-28T02:18:11.331Z,69.08
2017-03-28T02:19:12.755Z,68.98
2017-03-28T02:20:14.178Z,70.06
2017-03-28T02:21:15.598Z,70.15
2017-03-28T02:22:17.025Z,67.97
2017-03-28T02:23:18.452Z,68.79
2017-03-28T02:24:19.869Z,68.79
2017-03-28T02:25:21.299Z,69.55
2017-03-28T02:26:22.714Z,70.88
2017-03-28T02:27:24.138Z,69.74
2017-03-28T02:28:25.556Z,68.89
2017-03-28T02:29:26.982Z,68.73
2017-03-28T02:30:28.405Z,67.21
2017-03-28T02:31:29.828Z,67.75
2017-03-28T02:32:31.251Z,68.16
2017-03-28T02:33:32.673Z,68.07
2017-03-28T02:34:34.094Z,66.83
2017-03-28T02:35:35.517Z,68.04
2017-03-28T02:36:36.954Z,68.70
2017-03-28T02:37:38.385Z,67.65
2017-03-28T02:38:39.826Z,68.04
2017-03-28T02:39:41.248Z,66.74
2017-03-28T02:40:42.680Z,67.27
2017-03-28T02:41:44.106Z,66.74
2017-03-28T02:42:45.537Z,67.08
2017-03-28T02:43:46.973Z,68.13
2017-03-28T02:44:48.400Z,68.60
2017-03-28T02:45:49.819Z,67.94
2017-03-28T02:46:51.246Z,67.59
2017-03-28T02:47:52.670Z,66.80
2017-03-28T02:48:54.094Z,66.04
2017-03-28T02:49:55.523Z,66.36
2017-03-28T02:50:56.949Z,66.36
2017-03-28T02:51:58.375Z,64.94
2017-03-28T02:52:59.790Z,63.89
2017-03-28T02:54:01.214Z,64.17
2017-03-28T02:55:02.637Z,64.84
2017-03-28T02:56:04.060Z,64.75
2017-03-28T02:57:05.482Z,64.27
2017-03-28T02:58:06.912Z,63.70
2017-03-28T02:59:08.330Z,63.60
2017-03-28T03:00:09.764Z,63.23
2017-03-28T03:01:11.195Z,61.80
2017-03-28T03:02:12.622Z,62.46
2017-03-28T03:03:14.041Z,61.42
2017-03-28T03:04:15.469Z,60.85
2017-03-28T03:05:16.894Z,63.04
2017-03-28T03:06:18.319Z,61.83
2017-03-28T03:07:19.736Z,61.90
2017-03-28T03:08:21.178Z,62.37
2017-03-28T03:09:22.623Z,63.32
2017-03-28T03:10:24.055Z,64.08
2017-03-28T03:11:25.474Z,64.46
2017-03-28T03:12:26.897Z,64.27
2017-03-28T03:13:28.319Z,64.46
2017-03-28T03:14:29.741Z,65.12
2017-03-28T03:15:31.172Z,65.22
2017-03-28T03:16:32.601Z,65.79
2017-03-28T03:17:34.021Z,66.17
2017-03-28T03:18:35.438Z,65.88
2017-03-28T03:19:36.865Z,66.08
2017-03-28T03:20:38.304Z,67.65
2017-03-28T03:21:39.731Z,67.79
2017-03-28T03:22:41.163Z,68.23
2017-03-28T03:23:42.580Z,68.64
2017-03-28T03:24:44.004Z,67.88
2017-03-28T03:25:45.426Z,66.83
2017-03-28T03:26:46.856Z,66.64
2017-03-28T03:27:48.280Z,65.12
2017-03-28T03:28:49.711Z,64.46
2017-03-28T03:29:51.143Z,65.03
2017-03-28T03:30:52.593Z,65.41
2017-03-28T03:31:54.032Z,65.50
2017-03-28T03:32:55.463Z,64.84
2017-03-28T03:33:56.885Z,65.79
2017-03-28T03:34:59.192Z,65.69
2017-03-28T03:36:00.614Z,66.55
2017-03-28T03:37:02.038Z,64.84
2017-03-28T03:38:03.466Z,65.31
2017-03-28T03:39:04.884Z,65.31
2017-03-28T03:40:06.310Z,64.75
2017-03-28T03:41:07.732Z,64.46
2017-03-28T03:42:09.149Z,64.65
2017-03-28T03:43:10.572Z,65.31
2017-03-28T03:44:11.991Z,65.22
2017-03-28T03:45:13.417Z,66.46
2017-03-28T03:46:14.838Z,66.64
2017-03-28T03:47:16.261Z,66.99
2017-03-28T03:48:17.688Z,67.56
2017-03-28T03:49:19.127Z,68.07
2017-03-28T03:50:20.548Z,66.93
2017-03-28T03:51:21.976Z,67.02
2017-03-28T03:52:23.401Z,67.59
2017-03-28T03:53:24.826Z,66.55
2017-03-28T03:54:26.252Z,67.69
2017-03-28T03:55:27.682Z,67.59
2017-03-28T03:56:29.107Z,65.03
2017-03-28T03:57:30.532Z,65.88
2017-03-28T03:58:31.952Z,66.17
2017-03-28T03:59:33.379Z,64.56
2017-03-28T04:00:34.799Z,66.46
2017-03-28T04:01:36.232Z,64.17
2017-03-28T04:02:37.654Z,65.41
2017-03-28T04:03:39.081Z,65.88
2017-03-28T04:04:40.517Z,65.95
2017-03-28T04:05:41.934Z,65.85
2017-03-28T04:06:43.356Z,66.04
2017-03-28T04:07:44.790Z,66.52
2017-03-28T04:08:46.213Z,66.52
2017-03-28T04:09:47.692Z,66.99
2017-03-28T04:10:49.120Z,66.99
2017-03-28T04:11:50.545Z,67.08
2017-03-28T04:12:51.972Z,67.37
2017-03-28T04:13:53.389Z,67.37
2017-03-28T04:14:54.808Z,66.99
2017-03-28T04:15:56.245Z,66.42
2017-03-28T04:16:57.669Z,67.08
2017-03-28T04:17:59.094Z,66.52
2017-03-28T04:19:00.512Z,66.80
2017-03-28T04:20:01.934Z,66.46
2017-03-28T04:21:04.311Z,66.33
2017-03-28T04:22:05.726Z,66.52
2017-03-28T04:23:07.183Z,66.42
2017-03-28T04:24:08.642Z,66.42
2017-03-28T04:25:10.059Z,67.27
2017-03-28T04:26:11.484Z,67.27
2017-03-28T04:27:12.927Z,66.46
2017-03-28T04:28:14.348Z,66.42
2017-03-28T04:29:15.775Z,66.23
2017-03-28T04:30:17.234Z,66.52
2017-03-28T04:31:18.663Z,66.80
2017-03-28T04:32:20.086Z,66.42
2017-03-28T04:33:21.510Z,66.61
2017-03-28T04:34:23.039Z,66.52
2017-03-28T04:35:24.462Z,67.65
2017-03-28T04:36:25.884Z,67.08
2017-03-28T04:37:27.317Z,67.08
2017-03-28T04:38:29.281Z,67.08
2017-03-28T04:39:30.711Z,67.75
2017-03-28T04:40:32.136Z,66.99
2017-03-28T04:41:33.570Z,66.89
2017-03-28T04:42:34.977Z,66.83
2017-03-28T04:43:36.411Z,66.46
2017-03-28T04:44:37.827Z,65.22
2017-03-28T04:45:39.253Z,65.31
2017-03-28T04:46:40.673Z,65.41
2017-03-28T04:47:42.099Z,66.04
2017-03-28T04:48:43.526Z,66.42
2017-03-28T04:49:44.946Z,67.18
2017-03-28T04:50:46.377Z,67.75
2017-03-28T04:51:47.797Z,67.37
2017-03-28T04:52:49.217Z,67.08
2017-03-28T04:53:50.639Z,67.85
2017-03-28T04:54:52.058Z,68.04
2017-03-28T04:55:53.481Z,68.60
2017-03-28T04:56:54.905Z,68.70
2017-03-28T04:57:56.324Z,67.56
2017-03-28T04:58:58.475Z,67.85
2017-03-28T04:59:59.889Z,67.56
2017-03-28T05:01:01.319Z,67.27
2017-03-28T05:02:02.745Z,67.75
2017-03-28T05:03:04.170Z,68.04
2017-03-28T05:04:05.594Z,68.04
2017-03-28T05:05:07.019Z,68.51
2017-03-28T05:06:08.435Z,67.75
2017-03-28T05:07:09.858Z,66.99
2017-03-28T05:08:11.278Z,67.85
2017-03-28T05:09:12.704Z,68.13
2017-03-28T05:10:14.137Z,68.70
2017-03-28T05:11:15.574Z,69.08
2017-03-28T05:12:16.997Z,69.08
2017-03-28T05:13:18.417Z,69.93
2017-03-28T05:14:19.838Z,69.46
2017-03-28T05:15:21.274Z,69.17
2017-03-28T05:16:22.687Z,69.55
2017-03-28T05:17:24.112Z,68.60
2017-03-28T05:18:25.537Z,68.98
2017-03-28T05:19:26.961Z,68.89
2017-03-28T05:20:28.387Z,66.52
2017-03-28T05:21:29.815Z,67.27
2017-03-28T05:22:31.243Z,68.60
2017-03-28T05:23:32.683Z,68.07
2017-03-28T05:24:34.106Z,67.94
2017-03-28T05:25:35.530Z,68.13
2017-03-28T05:26:36.958Z,67.85
2017-03-28T05:27:38.380Z,67.85
2017-03-28T05:28:40.501Z,68.23
2017-03-28T05:29:41.930Z,68.41
2017-03-28T05:30:43.359Z,68.04
2017-03-28T05:31:44.836Z,68.32
2017-03-28T05:32:46.259Z,68.92
2017-03-28T05:33:47.706Z,68.07
2017-03-28T05:34:49.137Z,67.69
2017-03-28T05:35:50.638Z,67.56
2017-03-28T05:36:52.071Z,67.37
2017-03-28T05:37:53.498Z,68.07
2017-03-28T05:38:54.967Z,68.16
2017-03-28T05:39:56.396Z,68.07
2017-03-28T05:40:57.827Z,69.02
2017-03-28T05:41:59.256Z,69.11
2017-03-28T05:43:00.691Z,67.40
2017-03-28T05:44:02.127Z,69.11
2017-03-28T05:45:03.548Z,69.02
2017-03-28T05:46:05.017Z,68.64
2017-03-28T05:47:06.442Z,67.88
2017-03-28T05:48:07.861Z,68.07
2017-03-28T05:49:09.299Z,66.64
2017-03-28T05:50:10.725Z,66.83
2017-03-28T05:51:12.160Z,66.36
2017-03-28T05:52:13.578Z,64.97
2017-03-28T05:53:15.000Z,64.21
2017-03-28T05:54:16.425Z,66.20
2017-03-28T05:55:17.858Z,65.98
2017-03-28T05:56:19.283Z,67.12
2017-03-28T05:57:20.710Z,67.79
2017-03-28T05:58:22.145Z,68.16
2017-03-28T05:59:23.566Z,67.88
2017-03-28T06:00:24.990Z,68.07
2017-03-28T06:01:26.426Z,67.97
2017-03-28T06:02:27.848Z,67.34
2017-03-28T06:03:29.273Z,67.82
2017-03-28T06:04:30.699Z,66.49
2017-03-28T06:05:32.120Z,65.73
2017-03-28T06:06:33.551Z,65.63
2017-03-28T06:07:34.989Z,65.82
2017-03-28T06:08:36.413Z,65.54
2017-03-28T06:09:37.840Z,64.97
2017-03-28T06:10:39.262Z,64.87
2017-03-28T06:11:40.688Z,64.43
2017-03-28T06:12:43.077Z,64.34
2017-03-28T06:13:44.513Z,64.81
2017-03-28T06:14:45.943Z,64.34
2017-03-28T06:15:47.374Z,63.76
2017-03-28T06:16:48.791Z,64.53
2017-03-28T06:17:50.220Z,63.01
2017-03-28T06:18:51.647Z,62.53
2017-03-28T06:19:53.072Z,63.39
2017-03-28T06:20:54.501Z,63.60
2017-03-28T06:21:55.929Z,62.85
2017-03-28T06:22:57.357Z,62.37
2017-03-28T06:23:58.780Z,62.56
2017-03-28T06:25:00.202Z,63.04
2017-03-28T06:26:01.631Z,63.89
2017-03-28T06:27:03.049Z,63.13
2017-03-28T06:28:04.481Z,61.61
2017-03-28T06:29:05.912Z,62.21
2017-03-28T06:30:07.348Z,61.45
2017-03-28T06:31:08.781Z,62.40
2017-03-28T06:32:10.207Z,62.21
2017-03-28T06:33:11.639Z,61.55
2017-03-28T06:34:13.070Z,61.64
2017-03-28T06:35:14.494Z,58.12
2017-03-28T06:36:15.918Z,59.27
2017-03-28T06:37:17.356Z,58.69
2017-03-28T06:38:18.788Z,58.69
2017-03-28T06:39:20.215Z,60.78
2017-03-28T06:40:21.640Z,59.55
2017-03-28T06:41:23.113Z,56.92
2017-03-28T06:42:24.541Z,56.44
2017-03-28T06:43:25.967Z,57.87
2017-03-28T06:44:27.442Z,57.10
2017-03-28T06:45:28.890Z,55.58
2017-03-28T06:46:30.330Z,55.99
2017-03-28T06:47:31.760Z,55.32
2017-03-28T06:48:33.201Z,53.52
2017-03-28T06:49:34.661Z,53.99
2017-03-28T06:50:36.100Z,53.70
2017-03-28T06:51:37.548Z,53.52
2017-03-28T06:52:38.960Z,53.32
2017-03-28T06:53:40.380Z,52.78
2017-03-28T06:54:41.812Z,53.44
2017-03-28T06:55:43.259Z,53.16
2017-03-28T06:56:44.690Z,52.40
2017-03-28T06:57:46.119Z,51.92
2017-03-28T06:58:47.556Z,51.47
2017-03-28T06:59:48.991Z,52.59
2017-03-28T07:00:50.428Z,52.97
2017-03-28T07:01:51.866Z,52.59
2017-03-28T07:02:53.307Z,52.01
2017-03-28T07:03:54.728Z,50.71
2017-03-28T07:04:56.155Z,48.42
2017-03-28T07:05:57.579Z,50.52
2017-03-28T07:06:59.015Z,50.32
2017-03-28T07:08:00.443Z,49.28
2017-03-28T07:09:01.872Z,48.83
2017-03-28T07:10:03.300Z,47.97
2017-03-28T07:11:04.736Z,47.30
2017-03-28T07:12:06.161Z,48.92
2017-03-28T07:13:07.595Z,48.54
2017-03-28T07:14:09.021Z,48.73
2017-03-28T07:15:10.456Z,48.92
2017-03-28T07:16:11.887Z,48.73
2017-03-28T07:17:13.318Z,48.92
2017-03-28T07:18:14.745Z,48.63
2017-03-28T07:19:16.180Z,48.18
2017-03-28T07:20:17.608Z,48.28
2017-03-28T07:21:19.040Z,47.89
2017-03-28T07:22:20.476Z,48.18
2017-03-28T07:23:21.914Z,48.28
2017-03-28T07:24:23.342Z,47.16
2017-03-28T07:25:24.774Z,46.94
2017-03-28T07:26:26.215Z,48.94
2017-03-28T07:27:27.644Z,46.11
2017-03-28T07:28:29.089Z,44.87
2017-03-28T07:29:30.515Z,45.53
2017-03-28T07:30:31.975Z,44.10
2017-03-28T07:31:33.419Z,45.25
2017-03-28T07:32:34.848Z,46.01
2017-03-28T07:33:36.283Z,47.16
2017-03-28T07:34:37.714Z,47.16
2017-03-28T07:35:39.145Z,48.49
2017-03-28T07:36:40.575Z,46.11
2017-03-28T07:37:42.011Z,44.96
2017-03-28T07:38:43.445Z,44.89
2017-03-28T07:39:44.872Z,43.65
2017-03-28T07:40:46.303Z,44.51
2017-03-28T07:41:47.731Z,45.17
2017-03-28T07:42:49.687Z,46.42
2017-03-28T07:43:51.123Z,46.32
2017-03-28T07:44:52.557Z,47.18
2017-03-28T07:45:53.985Z,45.39
2017-03-28T07:46:55.457Z,46.22
2017-03-28T07:47:56.967Z,45.58
2017-03-28T07:48:58.395Z,45.39
2017-03-28T07:49:59.835Z,42.52
2017-03-28T07:51:01.266Z,42.04
2017-03-28T07:52:02.704Z,42.90
2017-03-28T07:53:04.139Z,43.29
2017-03-28T07:54:05.569Z,43.38
2017-03-28T07:55:07.015Z,40.42
2017-03-28T07:56:08.440Z,41.49
2017-03-28T07:57:09.873Z,39.96
2017-03-28T07:58:11.325Z,40.82
2017-03-28T07:59:12.852Z,42.16
2017-03-28T08:00:14.281Z,41.68
2017-03-28T08:01:15.710Z,41.11
2017-03-28T08:02:17.199Z,39.39
2017-03-28T08:03:18.636Z,39.96
2017-03-28T08:04:20.064Z,40.63
2017-03-28T08:05:21.505Z,41.20
2017-03-28T08:06:22.944Z,40.17
2017-03-28T08:07:24.369Z,40.08
2017-03-28T08:08:25.808Z,39.89
2017-03-28T08:09:27.244Z,39.22
2017-03-28T08:10:28.685Z,38.26
2017-03-28T08:11:30.118Z,38.54
2017-03-28T08:12:31.554Z,38.74
2017-03-28T08:13:32.999Z,38.45
2017-03-28T08:14:34.434Z,38.28
2017-03-28T08:15:35.877Z,38.28
2017-03-28T08:16:37.314Z,36.65
2017-03-28T08:17:38.872Z,36.27
2017-03-28T08:18:40.311Z,37.04
2017-03-28T08:19:41.750Z,37.23
2017-03-28T08:20:43.192Z,36.55
2017-03-28T08:21:44.627Z,37.13
2017-03-28T08:22:46.052Z,37.80
2017-03-28T08:23:47.489Z,38.95
2017-03-28T08:24:48.924Z,38.66
2017-03-28T08:25:50.357Z,38.95
2017-03-28T08:26:51.792Z,37.41
2017-03-28T08:27:53.242Z,37.13
2017-03-28T08:28:54.696Z,37.34
2017-03-28T08:29:56.131Z,36.47
2017-03-28T08:30:57.564Z,37.43
2017-03-28T08:31:59.002Z,36.96
2017-03-28T08:33:00.436Z,36.67
2017-03-28T08:34:01.867Z,37.82
2017-03-28T08:35:04.015Z,37.63
2017-03-28T08:36:05.458Z,35.71
2017-03-28T08:37:06.893Z,36.96
2017-03-28T08:38:08.348Z,36.96
2017-03-28T08:39:09.789Z,35.71
2017-03-28T08:40:11.224Z,36.77
2017-03-28T08:41:12.657Z,36.10
2017-03-28T08:42:14.096Z,35.24
2017-03-28T08:43:15.537Z,34.47
2017-03-28T08:44:16.974Z,36.10
2017-03-28T08:45:18.432Z,37.05
2017-03-28T08:46:19.841Z,37.72
2017-03-28T08:47:21.279Z,38.22
2017-03-28T08:48:22.712Z,36.40
2017-03-28T08:49:24.154Z,37.07
2017-03-28T08:50:25.601Z,36.40
2017-03-28T08:51:27.041Z,36.21
2017-03-28T08:52:28.473Z,36.02
2017-03-28T08:53:29.904Z,34.87
2017-03-28T08:54:31.339Z,35.35
2017-03-28T08:55:32.788Z,34.87
2017-03-28T08:56:34.219Z,35.16
2017-03-28T08:57:35.655Z,35.16
2017-03-28T08:58:37.093Z,35.92
2017-03-28T08:59:38.526Z,35.63
2017-03-28T09:00:39.963Z,37.07
2017-03-28T09:01:41.393Z,37.55
2017-03-28T09:02:42.825Z,37.28
2017-03-28T09:03:44.256Z,36.61
2017-03-28T09:04:45.698Z,37.66
2017-03-28T09:05:47.127Z,38.14
2017-03-28T09:06:48.560Z,38.05
2017-03-28T09:07:49.997Z,35.53
2017-03-28T09:08:51.442Z,36.32
2017-03-28T09:09:52.874Z,36.42
2017-03-28T09:10:54.308Z,35.17
2017-03-28T09:11:55.744Z,36.72
2017-03-28T09:12:57.179Z,35.67
2017-03-28T09:13:58.619Z,35.28
2017-03-28T09:15:00.059Z,36.53
2017-03-28T09:16:01.495Z,37.11
2017-03-28T09:17:02.925Z,37.30
2017-03-28T09:18:04.362Z,37.59
2017-03-28T09:19:05.793Z,36.34
2017-03-28T09:20:07.230Z,36.26
2017-03-28T09:21:08.667Z,35.49
2017-03-28T09:22:10.101Z,34.14
2017-03-28T09:23:11.542Z,34.71
2017-03-28T09:24:12.987Z,34.90
2017-03-28T09:25:14.409Z,35.38
2017-03-28T09:26:15.843Z,34.82
2017-03-28T09:27:17.295Z,36.24
2017-03-28T09:28:18.734Z,37.11
2017-03-28T09:29:20.171Z,35.10
2017-03-28T09:30:21.607Z,35.02
2017-03-28T09:31:23.044Z,34.92
2017-03-28T09:32:24.477Z,35.00
2017-03-28T09:33:25.916Z,34.71
2017-03-28T09:34:27.351Z,33.75
2017-03-28T09:35:28.785Z,35.67
2017-03-28T09:36:30.228Z,35.28
2017-03-28T09:37:31.659Z,35.19
2017-03-28T09:38:33.096Z,35.28
2017-03-28T09:39:34.543Z,35.38
2017-03-28T09:40:35.977Z,36.36
2017-03-28T09:41:37.419Z,37.13
2017-03-28T09:42:38.850Z,36.26
2017-03-28T09:43:40.303Z,34.92
2017-03-28T09:44:41.734Z,35.59
2017-03-28T09:45:43.169Z,36.65
2017-03-28T09:46:44.606Z,35.59
2017-03-28T09:47:46.039Z,37.70
2017-03-28T09:48:47.480Z,35.49
2017-03-28T09:49:48.916Z,34.73
2017-03-28T09:50:50.364Z,36.07
2017-03-28T09:51:51.801Z,33.86
2017-03-28T09:52:55.425Z,34.92
2017-03-28T09:53:56.858Z,36.07
2017-03-28T09:54:58.301Z,35.78
2017-03-28T09:55:59.733Z,35.22
2017-03-28T09:57:01.173Z,36.18
2017-03-28T09:58:02.612Z,34.07
2017-03-28T09:59:04.045Z,35.51
2017-03-28T10:00:05.496Z,37.05
2017-03-28T10:01:06.933Z,34.84
2017-03-28T10:02:08.372Z,33.32
2017-03-28T10:03:09.805Z,34.75
2017-03-28T10:04:11.243Z,35.32
2017-03-28T10:05:12.678Z,34.57
2017-03-28T10:06:14.112Z,34.94
2017-03-28T10:07:15.548Z,34.55
2017-03-28T10:08:17.918Z,35.34
2017-03-28T10:09:19.348Z,33.70
2017-03-28T10:10:20.788Z,33.61
2017-03-28T10:11:22.974Z,35.53
2017-03-28T10:12:24.406Z,36.30
2017-03-28T10:13:25.845Z,35.24
2017-03-28T10:14:27.286Z,35.24
2017-03-28T10:15:28.777Z,34.78
2017-03-28T10:16:30.216Z,34.86
2017-03-28T10:17:31.659Z,34.68
2017-03-28T10:18:33.186Z,33.99
2017-03-28T10:19:34.629Z,34.76
2017-03-28T10:20:36.068Z,34.95
2017-03-28T10:21:37.515Z,36.30
2017-03-28T10:22:38.952Z,35.63
2017-03-28T10:23:40.382Z,35.74
2017-03-28T10:24:41.826Z,35.26
2017-03-28T10:25:43.261Z,35.16
2017-03-28T10:26:44.693Z,34.01
2017-03-28T10:27:46.141Z,34.88
2017-03-28T10:28:47.575Z,33.72
2017-03-28T10:29:49.632Z,33.53
2017-03-28T10:30:51.084Z,32.38
2017-03-28T10:31:52.519Z,33.15
2017-03-28T10:32:53.966Z,33.26
2017-03-28T10:33:55.413Z,32.97
2017-03-28T10:34:56.855Z,32.78
2017-03-28T10:35:58.307Z,32.49
2017-03-28T10:36:59.750Z,34.03
2017-03-28T10:38:01.191Z,32.78
2017-03-28T10:39:02.632Z,32.20
2017-03-28T10:40:04.080Z,32.41
2017-03-28T10:41:05.526Z,33.85
2017-03-28T10:42:06.953Z,34.23
2017-03-28T10:43:08.389Z,35.39
2017-03-28T10:44:09.826Z,34.91
2017-03-28T10:45:11.267Z,32.87
2017-03-28T10:46:12.768Z,33.18
2017-03-28T10:47:14.205Z,33.95
2017-03-28T10:48:15.641Z,32.98
2017-03-28T10:49:17.075Z,32.71
2017-03-28T10:50:18.527Z,32.81
2017-03-28T10:51:19.958Z,32.90
2017-03-28T10:52:21.396Z,32.43
2017-03-28T10:53:22.847Z,32.73
2017-03-28T10:54:24.291Z,32.64
2017-03-28T10:55:25.720Z,32.81
2017-03-28T10:56:27.162Z,33.20
2017-03-28T10:57:28.603Z,32.90
2017-03-28T10:58:30.041Z,32.52
2017-03-28T10:59:31.473Z,31.87
2017-03-28T11:00:32.915Z,31.29
2017-03-28T11:01:34.361Z,31.48
2017-03-28T11:02:35.798Z,31.27
2017-03-28T11:03:37.240Z,32.82
2017-03-28T11:04:38.676Z,33.21
2017-03-28T11:05:40.113Z,31.67
2017-03-28T11:06:41.557Z,31.77
2017-03-28T11:07:42.995Z,31.77
2017-03-28T11:08:44.440Z,30.90
2017-03-28T11:09:45.883Z,31.59
2017-03-28T11:10:47.313Z,30.80
2017-03-28T11:11:48.757Z,31.69
2017-03-28T11:12:50.198Z,31.30
2017-03-28T11:13:51.643Z,32.94
2017-03-28T11:14:53.083Z,31.87
2017-03-28T11:15:54.520Z,31.48
2017-03-28T11:16:55.956Z,32.92
2017-03-28T11:17:57.393Z,32.06
2017-03-28T11:18:58.838Z,32.92
2017-03-28T11:20:00.272Z,33.02
2017-03-28T11:21:01.716Z,33.91
2017-03-28T11:22:03.156Z,33.53
2017-03-28T11:23:04.597Z,32.46
2017-03-28T11:24:06.043Z,32.67
2017-03-28T11:25:07.484Z,33.34
2017-03-28T11:26:08.920Z,30.26
2017-03-28T11:27:10.357Z,31.69
2017-03-28T11:28:11.796Z,30.43
2017-03-28T11:29:13.247Z,30.43
2017-03-28T11:30:14.691Z,31.59
2017-03-28T11:31:16.134Z,32.86
2017-03-28T11:32:17.569Z,32.07
2017-03-28T11:33:19.004Z,31.99
2017-03-28T11:34:20.446Z,32.76
2017-03-28T11:35:21.887Z,30.93
2017-03-28T11:36:23.332Z,31.32
2017-03-28T11:37:24.773Z,30.83
2017-03-28T11:38:26.224Z,30.64
2017-03-28T11:39:27.669Z,29.77
2017-03-28T11:40:29.109Z,29.39
2017-03-28T11:41:30.545Z,30.64
2017-03-28T11:42:31.983Z,30.16
2017-03-28T11:43:34.373Z,30.07
2017-03-28T11:44:35.821Z,30.45
2017-03-28T11:45:37.272Z,30.16
2017-03-28T11:46:38.718Z,31.32
2017-03-28T11:47:40.154Z,31.91
2017-03-28T11:48:41.596Z,30.18
2017-03-28T11:49:43.034Z,30.37
2017-03-28T11:50:44.478Z,30.85
2017-03-28T11:51:45.927Z,29.79
2017-03-28T11:52:47.370Z,29.60
2017-03-28T11:53:48.808Z,29.41
2017-03-28T11:54:50.253Z,29.58
2017-03-28T11:55:51.704Z,29.97
2017-03-28T11:56:53.141Z,30.55
2017-03-28T11:57:54.582Z,31.63
2017-03-28T11:58:56.030Z,30.67
2017-03-28T11:59:57.467Z,29.42
2017-03-28T12:00:58.908Z,28.83
2017-03-28T12:02:00.344Z,28.74
2017-03-28T12:03:01.782Z,30.48
2017-03-28T12:04:03.247Z,30.48
2017-03-28T12:05:04.674Z,28.74
2017-03-28T12:06:06.107Z,29.41
2017-03-28T12:07:07.555Z,29.31
2017-03-28T12:08:08.995Z,29.80
2017-03-28T12:09:10.450Z,29.42
2017-03-28T12:10:11.887Z,29.32
2017-03-28T12:11:13.329Z,29.24
2017-03-28T12:12:14.764Z,27.68
2017-03-28T12:13:16.207Z,28.45
2017-03-28T12:14:17.650Z,30.48
2017-03-28T12:15:19.106Z,29.42
2017-03-28T12:16:20.549Z,29.41
2017-03-28T12:17:21.994Z,28.81
2017-03-28T12:18:23.437Z,29.29
2017-03-28T12:19:24.882Z,29.68
2017-03-28T12:20:26.322Z,29.21
2017-03-28T12:21:27.778Z,28.53
2017-03-28T12:22:29.217Z,30.46
2017-03-28T12:23:30.680Z,29.42
2017-03-28T12:24:32.116Z,27.87
2017-03-28T12:25:33.559Z,27.68
2017-03-28T12:26:35.004Z,27.20
2017-03-28T12:27:36.449Z,27.78
2017-03-28T12:28:37.895Z,28.26
2017-03-28T12:29:39.335Z,27.67
2017-03-28T12:30:40.788Z,28.42
2017-03-28T12:31:42.257Z,28.63
2017-03-28T12:32:43.664Z,29.21
2017-03-28T12:33:45.101Z,28.83
2017-03-28T12:34:46.538Z,27.67
2017-03-28T12:35:47.978Z,29.39
2017-03-28T12:36:49.462Z,29.41
2017-03-28T12:37:50.876Z,29.32
2017-03-28T12:38:52.312Z,28.34
2017-03-28T12:39:53.757Z,27.86
2017-03-28T12:40:55.199Z,27.75
2017-03-28T12:41:56.634Z,27.56
2017-03-28T12:42:58.086Z,29.11
2017-03-28T12:44:00.367Z,28.84
2017-03-28T12:45:01.817Z,29.13
2017-03-28T12:46:03.261Z,27.50
2017-03-28T12:47:04.707Z,27.60
2017-03-28T12:48:06.144Z,26.73
2017-03-28T12:49:07.579Z,26.34
2017-03-28T12:50:09.024Z,27.31
2017-03-28T12:51:11.024Z,26.15
2017-03-28T12:52:12.479Z,28.48
2017-03-28T12:53:13.926Z,27.33
2017-03-28T12:54:15.382Z,27.42
2017-03-28T12:55:16.820Z,26.34
2017-03-28T12:56:18.265Z,26.06
2017-03-28T12:57:19.707Z,27.70
2017-03-28T12:58:21.145Z,27.78
2017-03-28T12:59:22.586Z,28.56
2017-03-28T13:00:24.028Z,27.80
2017-03-28T13:01:25.469Z,28.18
2017-03-28T13:02:26.902Z,25.86
2017-03-28T13:03:28.344Z,27.22
2017-03-28T13:04:29.782Z,27.78
2017-03-28T13:05:31.228Z,27.97
2017-03-28T13:06:32.663Z,27.87
2017-03-28T13:07:34.105Z,27.20
2017-03-28T13:08:35.563Z,26.04
2017-03-28T13:09:36.996Z,28.45
2017-03-28T13:10:38.450Z,29.42
2017-03-28T13:11:39.885Z,27.70